Time;durP1;ratioP1;P1;durP2;ratioP2;P2;SDS_P1;SDS_P2;PMS_P1;PMS_P2;Temp;Humidity;BMP_temperature;BMP_pressure;BME280_temperature;BME280_humidity;BME280_pressure;Samples;Min_cycle;Max_cycle;Signal;HPM_P1;HPM_P2
2022/02/04 00:23:54;;;;;;;3.50;2.40;;;7.20;99.90;;;;;;6189328;23;20225;-90
2022/02/04 00:26:25;;;;;;;20.07;4.23;;;7.20;99.90;;;;;;6136522;23;20236;-91
2022/02/04 00:29:06;;;;;;;1.33;1.23;;;7.20;99.90;;;;;;6160659;23;20221;-91
2022/02/04 00:31:37;;;;;;;6.17;4.63;;;7.20;99.90;;;;;;6141080;23;20205;-91
2022/02/04 00:34:10;;;;;;;6.63;3.27;;;7.30;99.90;;;;;;6137915;23;20291;-92
2022/02/04 00:36:54;;;;;;;3.10;2.80;;;7.30;99.90;;;;;;6185049;23;20201;-92
2022/02/04 00:39:26;;;;;;;5.40;4.37;;;7.40;99.90;;;;;;6163777;23;20628;-92
2022/02/04 00:41:53;;;;;;;2.97;2.27;;;7.50;99.90;;;;;;6161466;23;20178;-90
2022/02/04 00:44:23;;;;;;;4.87;3.07;;;7.50;99.90;;;;;;6135161;23;20201;-91
2022/02/04 00:49:34;;;;;;;4.83;4.17;;;7.40;99.90;;;;;;6159340;23;20201;-91
2022/02/04 01:25:55;;;;;;;2.37;1.90;;;7.70;99.90;;;;;;6167460;23;20256;-91
2022/02/04 01:27:28;;;;;;;3.30;2.47;;;7.90;99.90;;;;;;6210972;23;20669;-91
2022/02/04 01:32:22;;;;;;;4.87;3.53;;;7.90;99.90;;;;;;6184489;23;20678;-91
2022/02/04 01:34:48;;;;;;;3.90;3.60;;;7.80;99.90;;;;;;6135070;23;20198;-90
2022/02/04 01:37:14;;;;;;;4.07;2.87;;;7.80;99.90;;;;;;6135129;23;20194;-90
2022/02/04 01:39:39;;;;;;;5.93;2.80;;;7.80;99.90;;;;;;6159960;23;20591;-91
2022/02/04 01:42:07;;;;;;;2.40;2.30;;;7.80;99.90;;;;;;6134793;23;20249;-91
2022/02/04 01:44:32;;;;;;;5.00;3.57;;;7.90;99.90;;;;;;6160604;23;20154;-91
2022/02/04 01:46:58;;;;;;;3.57;2.53;;;7.80;99.90;;;;;;6184029;23;20194;-91
2022/02/04 01:49:27;;;;;;;3.73;2.93;;;7.80;99.90;;;;;;6134663;23;20194;-91
2022/02/04 01:51:53;;;;;;;4.30;3.73;;;7.80;99.90;;;;;;6184369;23;20193;-91
2022/02/04 01:54:20;;;;;;;5.77;5.20;;;7.80;99.90;;;;;;6159984;23;20190;-91
2022/02/04 01:56:46;;;;;;;5.53;4.30;;;7.90;99.90;;;;;;6159747;23;20182;-90
2022/02/04 01:59:13;;;;;;;5.17;3.83;;;7.80;99.90;;;;;;6184596;23;20675;-91
2022/02/04 02:01:38;;;;;;;5.70;4.43;;;7.90;99.90;;;;;;6159417;23;20202;-90
2022/02/04 02:04:06;;;;;;;3.43;2.97;;;7.90;99.90;;;;;;6134371;23;20201;-92
2022/02/04 02:07:10;;;;;;;6.20;4.87;;;7.90;99.90;;;;;;6184625;23;20189;-90
2022/02/04 02:12:36;;;;;;;4.07;3.07;;;7.90;99.90;;;;;;6152046;23;20194;-91
2022/02/04 02:44:19;;;;;;;5.10;4.43;;;8.10;99.90;;;;;;6185030;23;20222;-92
2022/02/04 02:52:14;;;;;;;1.67;1.57;;;8.20;99.90;;;;;;6162880;23;20220;-91
2022/02/04 03:00:12;;;;;;;4.53;3.40;;;8.40;99.90;;;;;;6209927;23;20220;-92
2022/02/04 03:02:38;;;;;;;2.47;2.07;;;8.40;99.90;;;;;;6187415;23;20178;-91
2022/02/04 03:05:04;;;;;;;3.70;2.23;;;8.40;99.90;;;;;;6159682;23;20194;-91
2022/02/04 03:07:30;;;;;;;2.47;2.10;;;8.50;99.90;;;;;;6160110;23;20561;-91
2022/02/04 03:09:56;;;;;;;4.13;3.03;;;8.50;99.90;;;;;;6136677;23;20189;-91
2022/02/04 03:12:22;;;;;;;3.40;3.17;;;8.50;99.90;;;;;;6161204;23;20213;-91
2022/02/04 03:14:47;;;;;;;3.47;3.07;;;8.50;99.90;;;;;;6136717;23;20212;-91
2022/02/04 03:17:14;;;;;;;3.23;2.40;;;8.40;99.90;;;;;;6135772;23;20256;-91
2022/02/04 03:19:45;;;;;;;2.97;2.70;;;8.40;99.90;;;;;;6160950;23;20194;-91
2022/02/04 03:22:13;;;;;;;4.40;3.40;;;8.30;99.90;;;;;;6161383;23;20263;-91
2022/02/04 03:24:41;;;;;;;3.80;2.13;;;8.30;99.90;;;;;;6137676;23;20197;-91
2022/02/04 03:27:11;;;;;;;12.27;3.23;;;8.30;99.90;;;;;;6137458;23;20245;-92
2022/02/04 03:30:03;;;;;;;10.07;4.27;;;8.30;99.90;;;;;;6186480;23;20584;-92
2022/02/04 03:32:30;;;;;;;6.83;2.97;;;8.30;99.90;;;;;;6185555;23;20296;-91
2022/02/04 03:34:56;;;;;;;3.33;2.73;;;8.30;99.90;;;;;;6185118;23;20639;-92
2022/02/04 03:37:21;;;;;;;2.90;2.60;;;8.40;99.90;;;;;;6136056;23;20209;-91
2022/02/04 03:39:47;;;;;;;5.53;3.03;;;8.40;99.90;;;;;;6135926;23;20198;-91
2022/02/04 03:42:13;;;;;;;4.77;2.27;;;8.40;99.90;;;;;;6136406;23;20189;-91
2022/02/04 03:44:39;;;;;;;2.87;2.43;;;8.40;99.90;;;;;;6161662;23;20663;-91
2022/02/04 03:47:05;;;;;;;6.20;2.33;;;8.40;99.90;;;;;;6185086;23;20264;-91
2022/02/04 03:49:31;;;;;;;1.23;1.10;;;8.50;99.90;;;;;;6185203;23;20558;-91
2022/02/04 03:51:57;;;;;;;2.30;1.40;;;8.50;99.90;;;;;;6135702;23;20202;-91
2022/02/04 03:54:23;;;;;;;2.87;1.90;;;8.50;99.90;;;;;;6160168;23;20659;-91
2022/02/04 03:56:49;;;;;;;1.27;1.17;;;8.50;99.90;;;;;;6160956;23;20241;-91
2022/02/04 03:59:15;;;;;;;12.83;1.87;;;8.60;99.90;;;;;;6136217;23;20221;-91
2022/02/04 04:01:41;;;;;;;2.57;2.37;;;8.60;99.90;;;;;;6136123;23;20682;-90
2022/02/04 04:04:06;;;;;;;4.63;2.23;;;8.60;99.90;;;;;;6136725;23;20325;-89
2022/02/04 04:06:32;;;;;;;3.17;1.47;;;8.60;99.90;;;;;;6136277;23;20221;-91
2022/02/04 04:08:58;;;;;;;4.30;1.43;;;8.70;99.90;;;;;;6136487;23;20541;-91
2022/02/04 04:11:24;;;;;;;0.73;0.73;;;8.70;99.90;;;;;;6160437;23;20682;-90
2022/02/04 04:13:50;;;;;;;10.37;2.60;;;8.70;99.90;;;;;;6135753;23;20205;-91
2022/02/04 04:16:18;;;;;;;3.33;2.77;;;8.70;99.90;;;;;;6136001;23;20252;-91
2022/02/04 04:18:44;;;;;;;2.63;2.10;;;8.70;99.90;;;;;;6159834;23;20219;-91
2022/02/04 04:21:10;;;;;;;1.50;1.40;;;8.80;99.90;;;;;;6184755;23;20606;-91
2022/02/04 04:23:36;;;;;;;1.30;1.23;;;8.80;99.90;;;;;;6136584;23;20649;-91
2022/02/04 04:26:01;;;;;;;7.27;1.60;;;8.80;99.90;;;;;;6184757;23;20229;-91
2022/02/04 04:28:27;;;;;;;1.83;1.60;;;8.80;99.90;;;;;;6160055;23;20252;-91
2022/02/04 04:30:53;;;;;;;1.97;1.37;;;8.80;99.90;;;;;;6159809;23;20194;-91
2022/02/04 04:33:19;;;;;;;4.83;1.63;;;8.90;99.90;;;;;;6135138;23;20210;-91
2022/02/04 04:35:44;;;;;;;2.10;1.93;;;8.90;99.90;;;;;;6136308;23;20240;-91
2022/02/04 04:38:22;;;;;;;9.07;2.23;;;8.90;99.90;;;;;;6159416;23;20247;-91
2022/02/04 04:41:04;;;;;;;1.50;1.40;;;9.00;99.90;;;;;;6140448;23;20190;-91
2022/02/04 05:29:51;;;;;;;0.60;0.57;;;9.10;99.90;;;;;;6167468;23;20237;-91
2022/02/04 05:32:17;;;;;;;0.73;0.73;;;9.20;99.90;;;;;;6159207;23;20255;-90
2022/02/04 05:34:45;;;;;;;0.70;0.30;;;9.20;99.90;;;;;;6183902;23;20210;-90
2022/02/04 05:37:13;;;;;;;1.30;1.20;;;9.20;99.90;;;;;;6135809;23;20214;-90
2022/02/04 05:39:50;;;;;;;1.33;0.53;;;9.30;99.90;;;;;;6136099;23;20194;-91
2022/02/04 05:42:20;;;;;;;0.40;0.40;;;9.30;99.90;;;;;;6161165;23;20178;-91
2022/02/04 05:44:54;;;;;;;1.87;0.57;;;9.30;99.90;;;;;;6137857;23;20146;-89
2022/02/04 05:47:20;;;;;;;4.77;2.83;;;9.30;99.90;;;;;;6160538;23;20500;-93
2022/02/04 05:50:02;;;;;;;8.53;4.17;;;9.30;99.90;;;;;;6135446;23;20185;-90
2022/02/04 05:52:31;;;;;;;4.43;2.73;;;9.30;99.90;;;;;;6141869;23;20197;-89
2022/02/04 05:55:17;;;;;;;3.93;1.10;;;9.30;99.90;;;;;;6133676;23;20193;-90
2022/02/04 05:57:57;;;;;;;3.73;1.50;;;9.30;99.90;;;;;;6143474;23;20217;-89
2022/02/04 06:06:04;;;;;;;1.00;0.90;;;9.40;99.90;;;;;;6167861;23;20539;-89
2022/02/04 06:11:14;;;;;;;7.00;1.97;;;9.30;99.90;;;;;;6210711;23;20193;-90
2022/02/04 06:24:29;;;;;;;0.40;0.40;;;9.40;99.90;;;;;;6188541;23;20193;-90
2022/02/04 06:26:55;;;;;;;0.93;0.53;;;9.40;99.90;;;;;;6160326;23;20173;-90
2022/02/04 06:29:22;;;;;;;4.97;3.70;;;9.50;99.90;;;;;;6146297;23;20272;-91
2022/02/04 06:31:48;;;;;;;2.30;1.10;;;9.50;99.90;;;;;;6159420;23;20190;-90
2022/02/04 06:34:14;;;;;;;1.73;1.63;;;9.50;99.90;;;;;;6183454;23;20240;-91
2022/02/04 06:36:40;;;;;;;1.70;0.83;;;9.50;99.90;;;;;;6134920;23;20198;-90
2022/02/04 06:39:06;;;;;;;4.43;1.27;;;9.50;99.90;;;;;;6184163;23;20237;-91
2022/02/04 06:41:32;;;;;;;0.27;0.27;;;9.50;99.90;;;;;;6160682;23;20997;-89
2022/02/04 06:44:02;;;;;;;1.00;0.77;;;9.50;99.90;;;;;;6161762;23;20570;-92
2022/02/04 06:46:31;;;;;;;0.40;0.40;;;9.50;99.90;;;;;;6138151;23;20196;-91
2022/02/04 06:48:59;;;;;;;1.13;0.87;;;9.50;99.90;;;;;;6161537;23;20200;-89
2022/02/04 06:51:25;;;;;;;1.43;0.90;;;9.50;99.90;;;;;;6186000;23;20193;-91
2022/02/04 06:53:51;;;;;;;0.67;0.67;;;9.50;99.90;;;;;;6161833;23;20158;-91
2022/02/04 06:56:16;;;;;;;11.60;1.73;;;9.40;99.90;;;;;;6136487;23;20190;-91
2022/02/04 06:58:43;;;;;;;2.93;1.67;;;9.40;99.90;;;;;;6136624;23;20201;-90
2022/02/04 07:01:09;;;;;;;0.70;0.53;;;9.40;99.90;;;;;;6160785;23;20194;-90
2022/02/04 07:03:35;;;;;;;0.73;0.70;;;9.30;99.90;;;;;;6211619;23;20301;-92
2022/02/04 07:06:02;;;;;;;10.40;1.30;;;9.30;99.90;;;;;;6160777;23;20184;-90
2022/02/04 07:11:18;;;;;;;1.50;1.40;;;9.30;99.90;;;;;;6187611;23;20193;-91
2022/02/04 07:21:31;;;;;;;7.70;1.23;;;9.30;99.90;;;;;;6168619;23;20209;-91
2022/02/04 07:23:57;;;;;;;3.77;1.07;;;9.40;99.90;;;;;;6162039;23;20197;-91
2022/02/04 07:26:23;;;;;;;0.40;0.40;;;9.40;99.90;;;;;;6136803;23;20281;-90
2022/02/04 07:28:49;;;;;;;2.23;1.67;;;9.40;99.90;;;;;;6136623;23;20530;-90
2022/02/04 07:31:15;;;;;;;1.47;1.27;;;9.40;99.90;;;;;;6136308;23;20197;-91
2022/02/04 07:33:48;;;;;;;0.57;0.40;;;9.40;99.90;;;;;;6136919;23;20229;-91
2022/02/04 07:41:44;;;;;;;3.77;1.50;;;9.40;99.90;;;;;;6168839;23;20216;-89
2022/02/04 07:44:10;;;;;;;1.63;1.53;;;9.40;99.90;;;;;;6160466;23;20269;-90
2022/02/04 07:46:37;;;;;;;5.53;2.00;;;9.40;99.90;;;;;;6160437;23;20215;-89
2022/02/04 07:49:03;;;;;;;2.30;0.80;;;9.40;99.90;;;;;;6185307;23;20640;-90
2022/02/04 07:51:29;;;;;;;8.67;0.80;;;9.40;99.90;;;;;;6160431;23;20201;-90
2022/02/04 07:53:55;;;;;;;4.03;1.60;;;9.40;99.90;;;;;;6160285;23;20217;-90
2022/02/04 07:56:23;;;;;;;2.80;0.70;;;9.40;99.90;;;;;;6135718;23;20205;-88
2022/02/04 07:59:05;;;;;;;3.50;1.67;;;9.50;99.90;;;;;;6136678;23;20206;-89
2022/02/04 08:01:31;;;;;;;0.30;0.30;;;9.50;99.90;;;;;;6164537;23;20197;-89
2022/02/04 08:04:11;;;;;;;3.20;1.77;;;9.50;99.90;;;;;;6160694;23;20204;-90
2022/02/04 08:06:45;;;;;;;2.03;1.83;;;9.50;99.90;;;;;;6211724;23;20247;-90
2022/02/04 08:09:21;;;;;;;3.83;1.27;;;9.50;99.90;;;;;;6162152;23;20242;-90
2022/02/04 08:32:42;;;;;;;0.50;0.50;;;9.40;99.90;;;;;;6161703;23;20213;-89
2022/02/04 08:35:34;;;;;;;0.33;0.33;;;9.40;99.90;;;;;;6165469;23;20248;-90
2022/02/04 08:38:26;;;;;;;2.03;0.93;;;9.40;99.90;;;;;;6164875;23;20248;-88
2022/02/04 08:46:52;;;;;;;1.53;0.90;;;9.40;99.90;;;;;;6167172;23;20661;-89
2022/02/04 08:49:33;;;;;;;1.10;0.60;;;9.40;99.90;;;;;;6190087;23;20245;-90
2022/02/04 08:54:48;;;;;;;1.63;1.37;;;9.40;99.90;;;;;;6167503;23;20202;-90
2022/02/04 09:00:11;;;;;;;0.40;0.40;;;9.40;99.90;;;;;;6187640;23;20153;-89
2022/02/04 09:02:40;;;;;;;2.07;1.97;;;9.40;99.90;;;;;;6163411;23;20288;-89
2022/02/04 09:05:12;;;;;;;0.63;0.60;;;9.40;99.90;;;;;;6160281;23;20574;-90
2022/02/04 09:07:52;;;;;;;3.10;0.67;;;9.40;99.90;;;;;;6183916;23;20194;-89
2022/02/04 09:10:23;;;;;;;1.43;1.43;;;9.50;99.90;;;;;;6140470;23;20606;-90
2022/02/04 09:20:42;;;;;;;4.70;0.90;;;9.60;99.90;;;;;;6184227;23;20252;-90
2022/02/04 09:23:09;;;;;;;1.00;0.80;;;9.60;99.90;;;;;;6139364;23;20523;-90
2022/02/04 09:25:36;;;;;;;1.13;1.03;;;9.60;99.90;;;;;;6183273;23;20208;-89
2022/02/04 09:28:02;;;;;;;4.87;2.20;;;9.60;99.90;;;;;;6159099;23;20202;-89
2022/02/04 09:30:28;;;;;;;8.63;1.20;;;9.70;99.90;;;;;;6158629;23;20220;-90
2022/02/04 09:32:54;;;;;;;2.27;1.37;;;9.70;99.90;;;;;;6160455;23;20253;-90
2022/02/04 09:35:23;;;;;;;4.90;1.47;;;9.70;99.90;;;;;;6133829;23;20599;-89
2022/02/04 09:37:53;;;;;;;1.83;1.73;;;9.70;99.90;;;;;;6183676;23;20206;-91
2022/02/04 09:40:20;;;;;;;0.83;0.83;;;9.80;99.90;;;;;;6183731;23;20212;-90
2022/02/04 09:42:46;;;;;;;1.30;0.40;;;9.70;99.90;;;;;;6159463;23;20220;-90
2022/02/04 09:45:23;;;;;;;0.80;0.80;;;9.80;99.90;;;;;;6159518;23;20490;-89
2022/02/04 09:47:56;;;;;;;0.50;0.50;;;9.80;99.90;;;;;;6184347;23;20146;-91
2022/02/04 09:50:24;;;;;;;1.23;1.17;;;9.80;99.90;;;;;;6183391;23;20198;-90
2022/02/04 10:18:11;;;;;;;2.13;0.73;;;9.90;99.90;;;;;;6210833;23;20224;-88
2022/02/04 10:20:42;;;;;;;6.23;0.97;;;9.90;99.90;;;;;;6185610;23;20138;-88
2022/02/04 10:23:09;;;;;;;3.40;1.23;;;9.90;99.90;;;;;;6159647;23;20201;-88
2022/02/04 10:25:41;;;;;;;2.30;0.97;;;9.90;99.90;;;;;;6184108;23;20194;-88
2022/02/04 10:28:18;;;;;;;1.07;0.70;;;9.90;99.90;;;;;;6184841;23;20251;-88
2022/02/04 10:30:44;;;;;;;0.37;0.27;;;9.80;99.90;;;;;;6184863;23;20201;-87
2022/02/04 10:33:15;;;;;;;0.60;0.60;;;9.90;99.90;;;;;;6134978;23;20490;-89
2022/02/04 10:35:41;;;;;;;1.20;0.57;;;9.90;99.90;;;;;;6182733;23;20198;-87
2022/02/04 10:38:26;;;;;;;1.07;1.00;;;9.90;99.90;;;;;;6159363;23;20201;-88
2022/02/04 10:41:17;;;;;;;1.47;1.37;;;9.90;99.90;;;;;;6184660;23;20651;-87
2022/02/04 11:04:45;;;;;;;3.50;2.90;;;9.90;99.90;;;;;;6210818;23;20667;-88
2022/02/04 11:07:37;;;;;;;2.73;0.63;;;9.90;99.90;;;;;;6162762;23;20198;-88
2022/02/04 11:10:32;;;;;;;1.07;1.00;;;9.90;99.90;;;;;;6146245;23;20217;-87
2022/02/04 11:36:02;;;;;;;8.87;1.70;;;9.70;99.90;;;;;;6209623;23;20261;-88
2022/02/04 11:52:39;;;;;;;1.27;1.17;;;9.60;99.90;;;;;;6210844;23;20725;-87
2022/02/04 11:55:11;;;;;;;2.00;1.90;;;9.60;99.90;;;;;;6184038;23;20201;-87
2022/02/04 11:57:56;;;;;;;1.07;0.97;;;9.70;99.90;;;;;;6183593;23;20193;-89
2022/02/04 12:00:32;;;;;;;5.23;1.20;;;9.60;99.90;;;;;;6184180;23;20658;-90
2022/02/04 12:02:58;;;;;;;1.30;1.20;;;9.60;99.90;;;;;;6184153;23;20170;-87
2022/02/04 12:05:24;;;;;;;0.37;0.37;;;9.50;99.90;;;;;;6183530;23;20490;-88
2022/02/04 12:07:57;;;;;;;2.40;0.67;;;9.00;99.90;;;;;;6183242;23;20232;-91
2022/02/04 12:10:32;;;;;;;0.10;0.10;;;8.20;99.90;;;;;;6184156;23;20194;-86
2022/02/04 12:12:59;;;;;;;0.83;0.50;;;8.10;99.90;;;;;;6159927;23;20205;-88
2022/02/04 12:15:31;;;;;;;0.10;0.10;;;7.80;99.90;;;;;;6159377;23;20189;-87
2022/02/04 12:18:08;;;;;;;1.03;0.33;;;7.50;99.90;;;;;;6185035;23;20614;-87
2022/02/04 12:20:56;;;;;;;0.10;0.10;;;7.30;99.90;;;;;;6184340;23;20170;-86
2022/02/04 12:23:41;;;;;;;0.20;0.20;;;7.10;99.90;;;;;;6183554;23;20279;-87
2022/02/04 12:26:10;;;;;;;0.10;0.10;;;7.00;99.90;;;;;;6184113;23;20701;-87
2022/02/04 12:28:39;;;;;;;0.20;0.20;;;6.90;99.90;;;;;;6183729;23;20228;-86
2022/02/04 12:31:17;;;;;;;0.10;0.10;;;6.90;99.90;;;;;;6184199;23;20209;-89
2022/02/04 12:33:45;;;;;;;0.30;0.30;;;6.90;99.90;;;;;;6184120;23;20321;-86
2022/02/04 12:36:34;;;;;;;0.13;0.13;;;6.80;99.90;;;;;;6183231;23;20166;-88
2022/02/04 12:39:04;;;;;;;0.20;0.20;;;6.70;99.90;;;;;;6159522;23;20149;-88
2022/02/04 12:41:32;;;;;;;0.20;0.20;;;6.70;99.90;;;;;;6183861;23;20240;-89
2022/02/04 12:44:04;;;;;;;0.20;0.20;;;6.40;99.90;;;;;;6210216;23;20276;-87
2022/02/04 12:46:31;;;;;;;0.20;0.20;;;6.40;99.90;;;;;;6183106;23;20202;-87
2022/02/04 12:48:59;;;;;;;0.30;0.30;;;6.40;99.90;;;;;;6158713;23;20597;-86
2022/02/04 12:52:08;;;;;;;0.20;0.20;;;6.40;99.90;;;;;;6183017;23;20193;-88
2022/02/04 12:54:32;;;;;;;0.30;0.30;;;6.40;99.90;;;;;;6208708;23;20201;-87
2022/02/04 13:07:49;;;;;;;0.20;0.20;;;6.00;99.90;;;;;;6187227;23;20198;-88
2022/02/04 13:10:20;;;;;;;0.20;0.20;;;5.90;99.90;;;;;;6183118;23;20197;-90
2022/02/04 13:13:10;;;;;;;0.20;0.20;;;5.80;99.90;;;;;;6208888;23;20198;-85
2022/02/04 13:15:38;;;;;;;0.20;0.20;;;5.70;99.90;;;;;;6181954;23;20198;-90
2022/02/04 13:18:07;;;;;;;0.33;0.33;;;5.70;99.90;;;;;;6158062;23;20172;-87
2022/02/04 13:20:34;;;;;;;0.30;0.30;;;5.60;99.90;;;;;;6158248;23;20154;-87
2022/02/04 13:23:06;;;;;;;0.20;0.20;;;5.70;99.90;;;;;;6133839;23;20257;-87
2022/02/04 13:25:35;;;;;;;0.20;0.20;;;5.70;99.90;;;;;;6209091;23;20194;-90
2022/02/04 13:28:08;;;;;;;0.10;0.10;;;5.60;99.90;;;;;;6183163;23;21022;-87
2022/02/04 13:31:01;;;;;;;0.20;0.20;;;5.50;99.90;;;;;;6182518;23;20254;-88
2022/02/04 13:33:40;;;;;;;0.20;0.20;;;5.60;99.90;;;;;;6183029;23;20186;-87
2022/02/04 13:36:30;;;;;;;0.20;0.20;;;5.50;99.90;;;;;;6182772;23;20539;-87
2022/02/04 13:44:53;;;;;;;0.20;0.20;;;5.30;99.90;;;;;;6208510;23;20197;-87
2022/02/04 13:55:29;;;;;;;0.10;0.10;;;5.40;99.90;;;;;;6184687;23;20758;-90
2022/02/04 13:58:11;;;;;;;0.10;0.10;;;5.30;99.90;;;;;;6182487;23;20213;-86
2022/02/04 14:03:43;;;;;;;0.30;0.30;;;5.40;99.90;;;;;;6207951;23;20204;-87
2022/02/04 14:06:19;;;;;;;0.20;0.20;;;5.50;99.90;;;;;;6182337;23;20197;-87
2022/02/04 14:11:15;;;;;;;0.20;0.20;;;5.60;99.90;;;;;;6182128;23;20642;-89
2022/02/04 14:13:41;;;;;;;0.30;0.30;;;5.70;99.90;;;;;;6157929;23;20639;-88
2022/02/04 14:16:08;;;;;;;0.20;0.20;;;5.80;99.90;;;;;;6182178;23;20200;-88
2022/02/04 14:18:35;;;;;;;1.03;0.30;;;5.70;99.90;;;;;;6131792;23;20642;-87
2022/02/04 14:21:02;;;;;;;0.20;0.20;;;5.70;99.90;;;;;;6178926;23;20185;-88
2022/02/04 14:23:28;;;;;;;0.47;0.47;;;5.80;99.90;;;;;;6154764;23;20186;-89
2022/02/04 14:26:16;;;;;;;0.10;0.10;;;5.70;99.90;;;;;;6129892;23;20204;-90
2022/02/04 14:28:50;;;;;;;1.00;0.50;;;5.70;99.90;;;;;;6179119;23;20197;-87
2022/02/04 14:31:24;;;;;;;0.20;0.20;;;5.60;99.90;;;;;;6133950;23;20598;-88
2022/02/04 14:53:41;;;;;;;0.20;0.20;;;5.90;99.90;;;;;;6063085;23;20208;-89
2022/02/04 14:58:56;;;;;;;0.20;0.20;;;5.90;99.90;;;;;;6182450;23;20260;-89
2022/02/04 15:09:13;;;;;;;0.10;0.10;;;5.70;99.90;;;;;;6142836;23;20166;-88
2022/02/04 15:11:43;;;;;;;0.30;0.30;;;5.70;99.90;;;;;;6157467;23;20166;-88
2022/02/04 15:14:11;;;;;;;1.70;0.30;;;5.80;99.90;;;;;;6181365;23;20198;-87
2022/02/04 15:16:38;;;;;;;0.93;0.53;;;5.70;99.90;;;;;;6180890;23;20575;-86
2022/02/04 15:19:05;;;;;;;0.20;0.20;;;5.80;99.90;;;;;;6156302;23;20208;-86
2022/02/04 15:21:32;;;;;;;0.30;0.30;;;5.80;99.90;;;;;;6181580;23;20836;-89
2022/02/04 15:23:59;;;;;;;0.20;0.20;;;5.80;99.90;;;;;;6181133;23;20158;-88
2022/02/04 15:26:27;;;;;;;0.20;0.20;;;5.80;99.90;;;;;;6132302;23;20181;-89
2022/02/04 15:29:01;;;;;;;0.20;0.20;;;5.80;99.90;;;;;;6156248;23;20198;-88
2022/02/04 15:33:56;;;;;;;0.20;0.20;;;5.90;99.90;;;;;;6207282;23;20201;-89
2022/02/04 15:36:32;;;;;;;0.20;0.20;;;5.80;99.90;;;;;;6156426;23;20194;-89
2022/02/04 15:39:00;;;;;;;0.30;0.30;;;5.90;99.90;;;;;;6181852;23;20150;-89
2022/02/04 15:41:26;;;;;;;0.20;0.20;;;6.00;99.90;;;;;;6181089;23;20193;-88
2022/02/04 15:43:57;;;;;;;1.63;0.70;;;5.90;99.90;;;;;;6119286;23;20526;-90
2022/02/04 16:05:52;;;;;;;0.10;0.10;;;5.90;99.90;;;;;;6097772;23;20623;-89
2022/02/04 16:08:18;;;;;;;0.57;0.57;;;6.00;99.90;;;;;;6119137;23;20194;-89
2022/02/04 16:13:35;;;;;;;0.20;0.20;;;5.90;99.90;;;;;;6183468;23;20176;-88
2022/02/04 16:16:09;;;;;;;0.20;0.20;;;5.80;99.90;;;;;;6159823;23;20252;-88
2022/02/04 16:18:56;;;;;;;0.20;0.20;;;5.80;99.90;;;;;;6135160;23;20182;-88
2022/02/04 16:21:39;;;;;;;0.93;0.60;;;5.60;99.90;;;;;;6158934;23;20282;-89
2022/02/04 16:26:57;;;;;;;2.57;1.03;;;5.50;99.90;;;;;;6182244;23;20198;-91
2022/02/04 16:29:23;;;;;;;0.17;0.17;;;5.40;99.90;;;;;;6158614;23;20263;-87
2022/02/04 16:31:49;;;;;;;0.40;0.40;;;5.40;99.90;;;;;;6131412;23;20201;-87
2022/02/04 16:34:16;;;;;;;3.50;0.67;;;5.50;99.90;;;;;;6155671;23;20216;-88
2022/02/04 16:36:45;;;;;;;3.80;0.60;;;5.60;99.90;;;;;;6156785;23;20165;-87
2022/02/04 16:39:12;;;;;;;0.40;0.40;;;5.70;99.90;;;;;;6157113;23;20296;-88
2022/02/04 16:42:14;;;;;;;0.47;0.47;;;5.70;99.90;;;;;;6137749;23;20574;-90
2022/02/04 16:44:32;;;;;;;3.77;0.57;;;5.60;99.90;;;;;;6167091;23;20194;-88
2022/02/04 16:47:02;;;;;;;0.40;0.40;;;5.70;99.90;;;;;;6155311;23;20197;-88
2022/02/04 16:49:31;;;;;;;0.77;0.43;;;5.80;99.90;;;;;;6184665;23;20186;-91
2022/02/04 16:51:57;;;;;;;0.57;0.57;;;5.80;99.90;;;;;;6160033;23;20607;-89
2022/02/04 16:54:24;;;;;;;0.60;0.53;;;5.80;99.90;;;;;;6155805;23;20198;-90
2022/02/04 16:56:51;;;;;;;0.30;0.30;;;5.80;99.90;;;;;;6180704;23;20202;-93
2022/02/04 16:59:17;;;;;;;0.67;0.43;;;5.90;99.90;;;;;;6180924;23;20201;-89
2022/02/04 17:01:43;;;;;;;0.30;0.30;;;6.00;99.90;;;;;;6130945;23;20264;-90
2022/02/04 17:04:11;;;;;;;1.30;0.70;;;6.10;99.90;;;;;;6156019;23;20166;-88
2022/02/04 17:06:40;;;;;;;0.30;0.30;;;6.20;99.90;;;;;;6132837;23;20158;-89
2022/02/04 17:09:21;;;;;;;5.73;1.53;;;6.20;99.90;;;;;;6136570;23;20287;-89
2022/02/04 17:12:00;;;;;;;0.83;0.83;;;6.30;99.90;;;;;;6179898;23;20205;-88
2022/02/04 17:14:27;;;;;;;0.20;0.20;;;6.30;99.90;;;;;;6179218;23;20236;-88
2022/02/04 17:16:57;;;;;;;7.03;2.57;;;6.20;99.90;;;;;;6154438;23;20201;-90
2022/02/04 17:19:27;;;;;;;0.87;0.30;;;6.20;99.90;;;;;;6179496;23;20216;-89
2022/02/04 17:21:54;;;;;;;0.30;0.30;;;6.20;99.90;;;;;;6180697;23;20178;-90
2022/02/04 17:24:21;;;;;;;0.20;0.20;;;6.20;99.90;;;;;;6181161;23;20205;-88
2022/02/04 17:26:48;;;;;;;0.60;0.60;;;6.20;99.90;;;;;;6133785;23;20225;-88
2022/02/04 17:29:14;;;;;;;0.63;0.63;;;6.20;99.90;;;;;;6157265;23;20276;-88
2022/02/04 17:31:40;;;;;;;1.07;0.30;;;6.30;99.90;;;;;;6132875;23;20275;-87
2022/02/04 17:34:06;;;;;;;0.40;0.40;;;6.30;99.90;;;;;;6158165;23;20222;-89
2022/02/04 17:36:36;;;;;;;0.27;0.27;;;6.30;99.90;;;;;;6159325;23;20698;-89
2022/02/04 17:39:14;;;;;;;0.20;0.20;;;6.30;99.90;;;;;;6182842;23;20225;-89
2022/02/04 17:41:40;;;;;;;0.27;0.27;;;6.30;99.90;;;;;;6182836;23;20189;-88
2022/02/04 17:44:06;;;;;;;8.63;0.90;;;6.30;99.90;;;;;;6158344;23;20222;-90
2022/02/04 17:46:32;;;;;;;0.40;0.40;;;6.30;99.90;;;;;;6134330;23;20205;-89
2022/02/04 17:49:08;;;;;;;1.13;1.03;;;6.30;99.90;;;;;;6134592;23;20162;-90
2022/02/04 17:51:45;;;;;;;1.70;0.50;;;6.30;99.90;;;;;;6139049;23;20169;-89
2022/02/04 17:54:14;;;;;;;1.43;0.90;;;6.30;99.90;;;;;;6163041;23;20255;-90
2022/02/04 17:56:59;;;;;;;0.60;0.60;;;6.00;99.90;;;;;;6132397;23;20198;-89
2022/02/04 18:02:29;;;;;;;0.30;0.30;;;5.80;99.90;;;;;;6184525;23;20264;-88
2022/02/04 18:07:40;;;;;;;0.20;0.20;;;5.50;99.90;;;;;;6162734;23;20194;-90
2022/02/04 18:10:09;;;;;;;1.00;0.63;;;5.50;99.90;;;;;;6155277;23;20216;-88
2022/02/04 18:12:36;;;;;;;0.20;0.20;;;5.60;99.90;;;;;;6157529;23;20311;-90
2022/02/04 18:15:08;;;;;;;1.10;0.97;;;5.70;99.90;;;;;;6139105;23;20226;-89
2022/02/04 18:17:33;;;;;;;0.50;0.50;;;5.80;99.90;;;;;;6178770;23;20198;-88
2022/02/04 18:19:59;;;;;;;0.50;0.50;;;6.00;99.90;;;;;;6130457;23;20743;-91
2022/02/04 18:22:26;;;;;;;0.30;0.30;;;6.10;99.90;;;;;;6180312;23;20208;-88
2022/02/04 18:24:52;;;;;;;0.40;0.40;;;6.10;99.90;;;;;;6129734;23;20166;-88
2022/02/04 18:27:17;;;;;;;0.30;0.30;;;6.10;99.90;;;;;;6157213;23;20166;-89
2022/02/04 18:29:51;;;;;;;0.87;0.87;;;6.10;99.90;;;;;;6155920;23;20202;-89
2022/02/04 18:32:17;;;;;;;1.70;0.60;;;6.10;99.90;;;;;;6157840;23;20263;-89
2022/02/04 18:34:46;;;;;;;0.20;0.20;;;6.10;99.90;;;;;;6132507;23;20718;-88
2022/02/04 18:37:15;;;;;;;0.50;0.50;;;6.10;99.90;;;;;;6182365;23;20227;-89
2022/02/04 18:42:45;;;;;;;0.70;0.70;;;6.10;99.90;;;;;;6186965;23;20213;-90
2022/02/04 18:45:18;;;;;;;1.53;1.20;;;6.10;99.90;;;;;;6151296;23;20673;-91
2022/02/04 18:47:56;;;;;;;0.20;0.20;;;6.10;99.90;;;;;;6187007;23;20670;-89
2022/02/04 18:50:47;;;;;;;7.73;0.60;;;6.20;99.90;;;;;;6138192;23;20208;-90
2022/02/04 18:56:15;;;;;;;4.07;1.13;;;6.20;99.90;;;;;;6185685;23;20931;-89
2022/02/04 18:58:42;;;;;;;2.83;1.30;;;6.20;99.90;;;;;;6145163;23;20197;-90
2022/02/04 19:01:08;;;;;;;0.60;0.57;;;6.20;99.90;;;;;;6134345;23;20193;-88
2022/02/04 19:03:40;;;;;;;0.23;0.23;;;6.30;99.90;;;;;;6135379;23;20217;-88
2022/02/04 19:06:19;;;;;;;0.60;0.60;;;6.30;99.90;;;;;;6137666;23;20225;-89
2022/02/04 19:08:57;;;;;;;1.97;1.77;;;6.30;99.90;;;;;;6165249;23;20201;-89
2022/02/04 19:14:06;;;;;;;1.60;1.00;;;6.30;99.90;;;;;;6163615;23;20189;-91
2022/02/04 19:21:57;;;;;;;0.23;0.23;;;6.30;99.90;;;;;;6184907;23;20169;-92
2022/02/04 19:24:19;;;;;;;3.53;1.00;;;6.30;99.90;;;;;;6167819;23;20522;-91
2022/02/04 19:26:44;;;;;;;0.83;0.40;;;6.30;99.90;;;;;;6184175;23;20194;-87
2022/02/04 19:29:10;;;;;;;0.93;0.47;;;6.30;99.90;;;;;;6161134;23;20580;-89
2022/02/04 19:31:51;;;;;;;0.60;0.53;;;6.30;99.90;;;;;;6161203;23;20221;-89
2022/02/04 19:34:24;;;;;;;2.10;0.57;;;6.40;99.90;;;;;;6163799;23;21005;-89
2022/02/04 19:36:50;;;;;;;1.07;1.07;;;6.30;99.90;;;;;;6162557;23;20663;-89
2022/02/04 19:39:16;;;;;;;1.00;1.00;;;6.30;99.90;;;;;;6186675;23;20174;-89
2022/02/04 19:41:47;;;;;;;0.30;0.30;;;6.40;99.90;;;;;;6136643;23;20522;-89
2022/02/04 19:44:13;;;;;;;0.40;0.40;;;6.30;99.90;;;;;;6162726;23;20762;-90
2022/02/04 19:46:40;;;;;;;0.30;0.30;;;6.30;99.90;;;;;;6161565;23;20191;-89
2022/02/04 19:49:10;;;;;;;0.60;0.60;;;6.40;99.90;;;;;;6136895;23;20170;-90
2022/02/04 20:16:51;;;;;;;0.53;0.53;;;6.40;99.90;;;;;;6211235;23;20192;-88
2022/02/04 20:24:46;;;;;;;0.50;0.50;;;6.50;99.90;;;;;;6188691;23;20189;-90
2022/02/04 20:27:05;;;;;;;1.13;1.03;;;6.70;99.90;;;;;;6169339;23;20578;-90
2022/02/04 20:29:31;;;;;;;0.67;0.67;;;6.70;99.90;;;;;;6159841;23;20198;-88
2022/02/04 20:31:57;;;;;;;3.17;0.80;;;6.80;99.90;;;;;;6135703;23;20202;-88
2022/02/04 20:34:22;;;;;;;2.33;0.97;;;6.80;99.90;;;;;;6160138;23;20689;-88
2022/02/04 20:36:48;;;;;;;3.60;2.63;;;6.90;99.90;;;;;;6133999;23;20826;-87
2022/02/04 20:39:16;;;;;;;0.63;0.63;;;7.00;99.90;;;;;;6157384;23;20865;-89
2022/02/04 20:41:42;;;;;;;1.90;1.43;;;6.90;99.90;;;;;;6157296;23;20209;-89